createdAt,value
2022-09-22T00:00:03.337Z,6.30
2022-09-22T00:01:03.426Z,6.30
2022-09-22T00:02:03.454Z,6.30
2022-09-22T00:03:03.438Z,6.30
2022-09-22T00:04:03.481Z,6.30
2022-09-22T00:05:03.352Z,6.30
2022-09-22T00:06:03.506Z,6.30
2022-09-22T00:07:03.594Z,6.20
2022-09-22T00:08:02.609Z,6.20
2022-09-22T00:09:02.634Z,6.20
2022-09-22T00:10:03.092Z,6.20
2022-09-22T00:11:02.960Z,6.20
2022-09-22T00:12:02.959Z,6.20
2022-09-22T00:13:03.096Z,6.20
2022-09-22T00:14:03.075Z,6.20
2022-09-22T00:15:03.070Z,6.20
2022-09-22T00:16:03.184Z,6.20
2022-09-22T00:17:03.210Z,6.20
2022-09-22T00:18:03.276Z,6.20
2022-09-22T00:19:03.276Z,6.20
2022-09-22T00:20:03.231Z,6.20
2022-09-22T00:21:03.275Z,6.10
2022-09-22T00:22:03.306Z,6.10
2022-09-22T00:23:03.380Z,6.10
2022-09-22T00:24:03.433Z,6.10
2022-09-22T00:25:03.418Z,6.10
2022-09-22T00:26:03.420Z,6.10
2022-09-22T00:27:03.520Z,6.10
2022-09-22T00:28:02.612Z,6.10
2022-09-22T00:29:02.703Z,6.10
2022-09-22T00:30:02.727Z,6.10
2022-09-22T00:31:02.738Z,6.10
2022-09-22T00:32:07.077Z,6.10
2022-09-22T00:33:02.822Z,6.10
2022-09-22T00:34:02.760Z,6.10
2022-09-22T00:35:02.765Z,6.10
2022-09-22T00:36:02.805Z,6.10
2022-09-22T00:37:02.751Z,6.10
2022-09-22T00:38:02.856Z,6.00
2022-09-22T00:39:02.837Z,6.10
2022-09-22T00:40:02.846Z,6.00
2022-09-22T00:41:02.908Z,6.00
2022-09-22T00:42:02.919Z,6.00
2022-09-22T00:43:02.892Z,6.00
2022-09-22T00:44:02.984Z,6.00
2022-09-22T00:45:03.054Z,6.00
2022-09-22T00:46:03.104Z,6.00
2022-09-22T00:47:03.191Z,6.00
2022-09-22T00:48:03.144Z,6.00
2022-09-22T00:49:03.081Z,6.00
2022-09-22T00:50:03.177Z,6.00
2022-09-22T00:51:03.176Z,6.00
2022-09-22T00:52:03.265Z,6.00
2022-09-22T00:53:03.371Z,6.00
2022-09-22T00:54:03.218Z,5.90
2022-09-22T00:55:03.411Z,5.90
2022-09-22T00:56:03.482Z,5.90
2022-09-22T00:57:03.474Z,5.90
2022-09-22T00:58:03.472Z,5.90
2022-09-22T00:59:03.467Z,5.90
2022-09-22T01:00:03.592Z,5.90
2022-09-22T01:01:03.652Z,5.90
2022-09-22T01:02:02.758Z,5.90
2022-09-22T01:03:02.670Z,5.80
2022-09-22T01:04:02.731Z,5.80
2022-09-22T01:05:02.814Z,5.80
2022-09-22T01:06:02.865Z,5.80
2022-09-22T01:07:02.980Z,5.80
2022-09-22T01:08:02.936Z,5.80
2022-09-22T01:09:02.978Z,5.80
2022-09-22T01:10:03.034Z,5.80
2022-09-22T01:11:03.090Z,5.80
2022-09-22T01:12:03.264Z,5.80
2022-09-22T01:13:03.234Z,5.80
2022-09-22T01:14:03.362Z,5.80
2022-09-22T01:15:03.317Z,5.80
2022-09-22T01:16:03.429Z,5.80
2022-09-22T01:17:03.516Z,5.80
2022-09-22T01:18:03.615Z,5.80
2022-09-22T01:19:03.415Z,5.80
2022-09-22T01:20:03.492Z,5.70
2022-09-22T01:21:02.654Z,5.70
2022-09-22T01:22:02.771Z,5.70
2022-09-22T01:23:02.948Z,5.70
2022-09-22T01:24:02.912Z,5.70
2022-09-22T01:25:03.052Z,5.70
2022-09-22T01:26:03.106Z,5.70
2022-09-22T01:27:03.269Z,5.70
2022-09-22T01:28:03.283Z,5.70
2022-09-22T01:29:03.272Z,5.70
2022-09-22T01:30:03.633Z,5.70
2022-09-22T01:31:03.580Z,5.70
2022-09-22T01:32:02.638Z,5.70
2022-09-22T01:33:02.710Z,5.70
2022-09-22T01:34:02.733Z,5.60
2022-09-22T01:35:03.193Z,5.60
2022-09-22T01:36:02.739Z,5.60
2022-09-22T01:37:02.848Z,5.60
2022-09-22T01:38:02.932Z,5.60
2022-09-22T01:39:02.865Z,5.60
2022-09-22T01:40:02.875Z,5.60
2022-09-22T01:41:02.843Z,5.60
2022-09-22T01:42:02.818Z,5.60
2022-09-22T01:43:02.918Z,5.60
2022-09-22T01:44:02.929Z,5.60
2022-09-22T01:45:02.856Z,5.60
2022-09-22T01:46:02.971Z,5.60
2022-09-22T01:47:02.973Z,5.60
2022-09-22T01:48:03.164Z,5.60
2022-09-22T01:49:03.138Z,5.60
2022-09-22T01:50:03.248Z,5.60
2022-09-22T01:51:03.286Z,5.60
2022-09-22T01:52:03.283Z,5.60
2022-09-22T01:53:03.412Z,5.60
2022-09-22T01:54:02.998Z,5.50
2022-09-22T01:55:03.055Z,5.60
2022-09-22T01:56:03.125Z,5.50
2022-09-22T01:57:03.109Z,5.50
2022-09-22T01:58:03.193Z,5.50
2022-09-22T01:59:03.194Z,5.50
2022-09-22T02:00:03.166Z,5.50
2022-09-22T02:01:03.196Z,5.50
2022-09-22T02:02:03.321Z,5.50
2022-09-22T02:03:03.292Z,5.50
2022-09-22T02:04:03.205Z,5.50
2022-09-22T02:05:03.177Z,5.50
2022-09-22T02:06:03.271Z,5.50
2022-09-22T02:07:03.165Z,5.50
2022-09-22T02:08:03.279Z,5.50
2022-09-22T02:09:03.413Z,5.50
2022-09-22T02:10:03.330Z,5.50
2022-09-22T02:11:03.382Z,5.50
2022-09-22T02:12:03.407Z,5.50
2022-09-22T02:13:03.294Z,5.50
2022-09-22T02:14:03.318Z,5.50
2022-09-22T02:15:03.273Z,5.50
2022-09-22T02:16:03.339Z,5.50
2022-09-22T02:17:03.568Z,5.40
2022-09-22T02:18:03.488Z,5.40
2022-09-22T02:19:12.263Z,5.40
2022-09-22T02:20:02.718Z,5.40
2022-09-22T02:21:02.861Z,5.40
2022-09-22T02:22:02.863Z,5.40
2022-09-22T02:23:02.948Z,5.40
2022-09-22T02:24:02.816Z,5.40
2022-09-22T02:25:02.832Z,5.40
2022-09-22T02:26:02.902Z,5.40
2022-09-22T02:27:02.884Z,5.40
2022-09-22T02:28:02.941Z,5.40
2022-09-22T02:29:02.927Z,5.40
2022-09-22T02:30:02.970Z,5.40
2022-09-22T02:31:19.834Z,5.40
2022-09-22T02:32:03.120Z,5.40
2022-09-22T02:33:03.176Z,5.40
2022-09-22T02:34:03.706Z,5.30
2022-09-22T02:35:02.623Z,5.40
2022-09-22T02:36:02.767Z,5.30
2022-09-22T02:37:02.907Z,5.30
2022-09-22T02:38:02.852Z,5.30
2022-09-22T02:39:02.895Z,5.30
2022-09-22T02:40:02.966Z,5.30
2022-09-22T02:41:03.043Z,5.30
2022-09-22T02:42:03.070Z,5.30
2022-09-22T02:43:03.164Z,5.30
2022-09-22T02:44:03.139Z,5.30
2022-09-22T02:45:03.097Z,5.30
2022-09-22T02:46:03.110Z,5.30
2022-09-22T02:47:03.006Z,5.30
2022-09-22T02:48:03.060Z,5.30
2022-09-22T02:49:03.008Z,5.30
2022-09-22T02:50:03.058Z,5.30
2022-09-22T02:51:03.017Z,5.30
2022-09-22T02:52:03.025Z,5.30
2022-09-22T02:53:03.034Z,5.30
2022-09-22T02:54:03.064Z,5.30
2022-09-22T02:55:03.101Z,5.20
2022-09-22T02:56:03.196Z,5.20
2022-09-22T02:57:03.122Z,5.20
2022-09-22T02:58:03.230Z,5.20
2022-09-22T02:59:03.267Z,5.20
2022-09-22T03:00:03.326Z,5.20
2022-09-22T03:01:03.455Z,5.20
2022-09-22T03:02:03.359Z,5.20
2022-09-22T03:03:03.443Z,5.20
2022-09-22T03:04:03.532Z,5.20
2022-09-22T03:05:03.619Z,5.20
2022-09-22T03:06:03.536Z,5.20
2022-09-22T03:07:02.692Z,5.20
2022-09-22T03:08:02.656Z,5.20
2022-09-22T03:09:02.655Z,5.20
2022-09-22T03:10:02.740Z,5.20
2022-09-22T03:11:02.785Z,5.20
2022-09-22T03:12:02.829Z,5.20
2022-09-22T03:13:16.254Z,5.20
2022-09-22T03:14:02.967Z,5.20
2022-09-22T03:15:02.936Z,5.20
2022-09-22T03:16:03.101Z,5.20
2022-09-22T03:17:03.149Z,5.20
2022-09-22T03:18:03.100Z,5.20
2022-09-22T03:19:03.159Z,5.20
2022-09-22T03:20:03.189Z,5.20
2022-09-22T03:21:03.170Z,5.20
2022-09-22T03:22:03.232Z,5.20
2022-09-22T03:23:03.294Z,5.20
2022-09-22T03:24:03.349Z,5.20
2022-09-22T03:25:03.322Z,5.20
2022-09-22T03:26:03.531Z,5.20
2022-09-22T03:27:03.476Z,5.20
2022-09-22T03:28:03.507Z,5.20
2022-09-22T03:29:03.488Z,5.20
2022-09-22T03:30:03.501Z,5.20
2022-09-22T03:31:03.520Z,5.20
2022-09-22T03:32:03.523Z,5.20
2022-09-22T03:33:03.510Z,5.20
2022-09-22T03:34:03.532Z,5.20
2022-09-22T03:35:03.565Z,5.20
2022-09-22T03:36:02.662Z,5.20
2022-09-22T03:37:02.692Z,5.20
2022-09-22T03:38:02.669Z,5.20
2022-09-22T03:39:02.681Z,5.20
2022-09-22T03:40:02.686Z,5.20
2022-09-22T03:41:02.682Z,5.20
2022-09-22T03:42:02.637Z,5.20
2022-09-22T03:43:02.713Z,5.20
2022-09-22T03:44:02.722Z,5.20
2022-09-22T03:45:02.714Z,5.20
2022-09-22T03:46:02.762Z,5.20
2022-09-22T03:47:02.846Z,5.20
2022-09-22T03:48:02.905Z,5.20
2022-09-22T03:49:02.855Z,5.20
2022-09-22T03:50:02.810Z,5.20
2022-09-22T03:51:02.828Z,5.20
2022-09-22T03:52:03.015Z,5.20
2022-09-22T03:53:02.999Z,5.20
2022-09-22T03:54:03.053Z,5.20
2022-09-22T03:55:03.247Z,5.20
2022-09-22T03:56:03.231Z,5.20
2022-09-22T03:57:03.198Z,5.20
2022-09-22T03:58:03.203Z,5.20
2022-09-22T03:59:03.240Z,5.20
2022-09-22T04:00:03.274Z,5.20
2022-09-22T04:01:03.292Z,5.20
2022-09-22T04:02:03.363Z,5.20
2022-09-22T04:03:03.330Z,5.20
2022-09-22T04:04:03.262Z,5.20
2022-09-22T04:05:03.135Z,5.20
2022-09-22T04:06:03.063Z,5.20
2022-09-22T04:07:07.029Z,5.20
2022-09-22T04:08:02.827Z,5.20
2022-09-22T04:09:02.856Z,5.20
2022-09-22T04:10:03.251Z,5.20
2022-09-22T04:11:03.512Z,5.20
2022-09-22T04:12:03.488Z,5.20
2022-09-22T04:13:03.503Z,5.20
2022-09-22T04:14:03.523Z,5.20
2022-09-22T04:15:03.570Z,5.20
2022-09-22T04:16:02.629Z,5.30
2022-09-22T04:17:03.105Z,5.20
2022-09-22T04:18:03.063Z,5.20
2022-09-22T04:19:03.025Z,5.20
2022-09-22T04:20:03.042Z,5.20
2022-09-22T04:21:03.164Z,5.20
2022-09-22T04:22:03.256Z,5.20
2022-09-22T04:23:03.425Z,5.20
2022-09-22T04:24:03.417Z,5.20
2022-09-22T04:25:03.853Z,5.20
2022-09-22T04:26:02.758Z,5.20
2022-09-22T04:27:18.884Z,5.20
2022-09-22T04:28:05.498Z,5.20
2022-09-22T04:29:02.856Z,5.20
2022-09-22T04:30:02.875Z,5.20
2022-09-22T04:31:02.976Z,5.20
2022-09-22T04:32:03.072Z,5.20
2022-09-22T04:33:03.024Z,5.20
2022-09-22T04:34:06.895Z,5.20
2022-09-22T04:35:03.008Z,5.10
2022-09-22T04:36:03.052Z,5.10
2022-09-22T04:37:03.137Z,5.10
2022-09-22T04:38:03.236Z,5.10
2022-09-22T04:39:03.256Z,5.10
2022-09-22T04:40:03.350Z,5.10
2022-09-22T04:41:03.338Z,5.10
2022-09-22T04:42:03.352Z,5.10
2022-09-22T04:43:03.478Z,5.10
2022-09-22T04:44:03.589Z,5.00
2022-09-22T04:45:03.527Z,5.00
2022-09-22T04:46:03.660Z,5.00
2022-09-22T04:47:02.684Z,5.00
2022-09-22T04:48:02.677Z,5.00
2022-09-22T04:49:02.761Z,5.00
2022-09-22T04:50:02.740Z,5.00
2022-09-22T04:51:02.833Z,5.00
2022-09-22T04:52:02.787Z,5.00
2022-09-22T04:53:02.790Z,5.00
2022-09-22T04:54:02.864Z,5.00
2022-09-22T04:55:02.911Z,5.00
2022-09-22T04:56:02.955Z,5.00
2022-09-22T04:57:03.044Z,5.00
2022-09-22T04:58:03.184Z,5.00
2022-09-22T04:59:03.333Z,4.90
2022-09-22T05:00:03.307Z,4.90
2022-09-22T05:01:03.511Z,4.90
2022-09-22T05:02:03.487Z,4.90
2022-09-22T05:03:03.643Z,4.90
2022-09-22T05:04:02.630Z,4.90
2022-09-22T05:05:02.684Z,4.90
2022-09-22T05:06:02.797Z,4.90
2022-09-22T05:07:02.867Z,4.90
2022-09-22T05:08:02.889Z,4.80
2022-09-22T05:09:02.950Z,4.80
2022-09-22T05:10:02.877Z,4.80
2022-09-22T05:11:02.913Z,4.80
2022-09-22T05:12:02.945Z,4.80
2022-09-22T05:13:03.005Z,4.80
2022-09-22T05:14:02.971Z,4.80
2022-09-22T05:15:02.975Z,4.80
2022-09-22T05:16:03.068Z,4.80
2022-09-22T05:17:03.198Z,4.80
2022-09-22T05:18:03.274Z,4.80
2022-09-22T05:19:03.417Z,4.80
2022-09-22T05:20:03.500Z,4.80
2022-09-22T05:21:03.536Z,4.80
2022-09-22T05:22:02.708Z,4.80
2022-09-22T05:23:02.692Z,4.80
2022-09-22T05:24:02.658Z,4.80
2022-09-22T05:25:03.679Z,4.80
2022-09-22T05:26:02.662Z,4.80
2022-09-22T05:27:02.707Z,4.80
2022-09-22T05:28:02.795Z,4.80
2022-09-22T05:29:02.745Z,4.80
2022-09-22T05:30:02.816Z,4.80
2022-09-22T05:31:02.758Z,4.90
2022-09-22T05:32:02.805Z,4.90
2022-09-22T05:33:02.738Z,4.90
2022-09-22T05:34:02.873Z,4.90
2022-09-22T05:35:03.047Z,4.90
2022-09-22T05:36:02.989Z,4.90
2022-09-22T05:37:02.980Z,5.00
2022-09-22T05:38:02.999Z,5.00
2022-09-22T05:39:03.040Z,5.00
2022-09-22T05:40:03.128Z,5.00
2022-09-22T05:41:03.247Z,5.00
2022-09-22T05:42:05.381Z,5.00
2022-09-22T05:43:03.299Z,5.00
2022-09-22T05:44:03.302Z,5.10
2022-09-22T05:45:03.431Z,5.10
2022-09-22T05:46:03.481Z,5.10
2022-09-22T05:47:03.521Z,5.10
2022-09-22T05:48:03.582Z,5.10
2022-09-22T05:49:02.657Z,5.10
2022-09-22T05:50:02.641Z,5.10
2022-09-22T05:51:02.774Z,5.20
2022-09-22T05:52:02.768Z,5.20
2022-09-22T05:53:02.703Z,5.20
2022-09-22T05:54:02.836Z,5.20
2022-09-22T05:55:02.786Z,5.20
2022-09-22T05:56:02.774Z,5.30
2022-09-22T05:57:02.948Z,5.30
2022-09-22T05:58:02.846Z,5.30
2022-09-22T05:59:03.030Z,5.30
2022-09-22T06:00:03.086Z,5.40
2022-09-22T06:01:03.155Z,5.40
2022-09-22T06:02:13.305Z,5.50
2022-09-22T06:03:03.279Z,5.60
2022-09-22T06:04:03.222Z,5.70
2022-09-22T06:05:03.341Z,5.80
2022-09-22T06:06:03.278Z,6.00
2022-09-22T06:07:03.424Z,6.10
2022-09-22T06:08:03.652Z,6.30
2022-09-22T06:09:02.686Z,6.50
2022-09-22T06:10:02.659Z,6.60
2022-09-22T06:11:02.764Z,6.80
2022-09-22T06:12:02.743Z,7.00
2022-09-22T06:13:02.785Z,7.20
2022-09-22T06:14:02.848Z,7.40
2022-09-22T06:15:02.802Z,7.50
2022-09-22T06:16:02.934Z,7.70
2022-09-22T06:17:02.968Z,7.90
2022-09-22T06:18:03.005Z,8.00
2022-09-22T06:19:03.025Z,8.20
2022-09-22T06:20:03.008Z,8.40
2022-09-22T06:21:03.107Z,8.50
2022-09-22T06:22:03.194Z,8.70
2022-09-22T06:23:03.157Z,8.80
2022-09-22T06:24:03.272Z,8.90
2022-09-22T06:25:03.241Z,9.00
2022-09-22T06:26:03.415Z,9.20
2022-09-22T06:27:03.322Z,9.30
2022-09-22T06:28:03.492Z,9.40
2022-09-22T06:29:03.455Z,9.50
2022-09-22T06:30:03.388Z,9.60
2022-09-22T06:31:03.442Z,9.70
2022-09-22T06:32:03.553Z,9.80
2022-09-22T06:33:03.483Z,9.90
2022-09-22T06:34:07.434Z,10.00
2022-09-22T06:35:02.712Z,10.10
2022-09-22T06:36:02.812Z,10.20
2022-09-22T06:37:02.928Z,10.30
2022-09-22T06:38:02.928Z,10.40
2022-09-22T06:39:02.989Z,10.50
2022-09-22T06:40:03.053Z,10.50
2022-09-22T06:41:03.155Z,10.60
2022-09-22T06:42:03.200Z,10.70
2022-09-22T06:43:03.191Z,10.80
2022-09-22T06:44:03.275Z,10.90
2022-09-22T06:45:03.363Z,10.90
2022-09-22T06:46:03.479Z,11.00
2022-09-22T06:47:03.407Z,11.10
2022-09-22T06:48:06.371Z,11.20
2022-09-22T06:49:03.615Z,11.20
2022-09-22T06:50:02.630Z,11.30
2022-09-22T06:51:02.657Z,11.30
2022-09-22T06:52:02.756Z,11.40
2022-09-22T06:53:02.774Z,11.40
2022-09-22T06:54:02.688Z,11.50
2022-09-22T06:55:02.769Z,11.50
2022-09-22T06:56:02.809Z,11.60
2022-09-22T06:57:02.780Z,11.60
2022-09-22T06:58:02.807Z,11.70
2022-09-22T06:59:09.721Z,11.70
2022-09-22T07:00:02.853Z,11.70
2022-09-22T07:01:05.166Z,11.80
2022-09-22T07:02:03.165Z,11.80
2022-09-22T07:03:03.150Z,11.90
2022-09-22T07:04:03.496Z,11.90
2022-09-22T07:05:03.448Z,11.90
2022-09-22T07:06:03.452Z,12.00
2022-09-22T07:07:03.570Z,12.00
2022-09-22T07:08:03.615Z,12.00
2022-09-22T07:09:03.587Z,12.10
2022-09-22T07:10:03.555Z,12.10
2022-09-22T07:11:02.922Z,12.10
2022-09-22T07:12:02.871Z,12.20
2022-09-22T07:13:02.988Z,12.20
2022-09-22T07:14:02.951Z,12.20
2022-09-22T07:15:03.056Z,12.20
2022-09-22T07:16:03.092Z,12.20
2022-09-22T07:17:03.018Z,12.30
2022-09-22T07:18:03.101Z,12.30
2022-09-22T07:19:03.228Z,12.30
2022-09-22T07:20:03.408Z,12.40
2022-09-22T07:21:03.455Z,12.40
2022-09-22T07:22:03.437Z,12.40
2022-09-22T07:23:03.470Z,12.40
2022-09-22T07:24:03.574Z,12.50
2022-09-22T07:25:02.678Z,12.50
2022-09-22T07:26:03.060Z,12.50
2022-09-22T07:27:03.072Z,12.50
2022-09-22T07:28:02.990Z,12.50
2022-09-22T07:29:03.145Z,12.60
2022-09-22T07:30:03.344Z,12.60
2022-09-22T07:31:03.407Z,12.60
2022-09-22T07:32:03.422Z,12.60
2022-09-22T07:33:03.410Z,12.60
2022-09-22T07:34:03.493Z,12.60
2022-09-22T07:35:03.402Z,12.60
2022-09-22T07:36:03.478Z,12.60
2022-09-22T07:37:03.391Z,12.60
2022-09-22T07:38:03.489Z,12.70
2022-09-22T07:39:03.412Z,12.70
2022-09-22T07:40:03.573Z,12.70
2022-09-22T07:41:03.461Z,12.70
2022-09-22T07:42:03.485Z,12.70
2022-09-22T07:43:03.608Z,12.70
2022-09-22T07:44:03.618Z,12.70
2022-09-22T07:45:02.667Z,12.80
2022-09-22T07:46:02.700Z,12.80
2022-09-22T07:47:02.724Z,12.80
2022-09-22T07:48:02.790Z,12.80
2022-09-22T07:49:02.831Z,12.80
2022-09-22T07:50:02.928Z,12.70
2022-09-22T07:51:03.045Z,12.70
2022-09-22T07:52:03.050Z,12.70
2022-09-22T07:53:03.161Z,12.70
2022-09-22T07:54:03.227Z,12.80
2022-09-22T07:55:03.324Z,12.80
2022-09-22T07:56:03.282Z,12.80
2022-09-22T07:57:03.406Z,12.80
2022-09-22T07:58:03.367Z,12.90
2022-09-22T07:59:03.479Z,12.90
2022-09-22T08:00:03.577Z,12.90
2022-09-22T08:01:03.747Z,12.90
2022-09-22T08:02:02.722Z,12.90
2022-09-22T08:03:02.771Z,12.90
2022-09-22T08:04:02.829Z,12.90
2022-09-22T08:05:02.708Z,12.90
2022-09-22T08:06:06.054Z,12.90
2022-09-22T08:07:02.870Z,12.90
2022-09-22T08:08:02.784Z,13.00
2022-09-22T08:09:02.940Z,12.90
2022-09-22T08:10:03.024Z,12.90
2022-09-22T08:11:03.389Z,12.90
2022-09-22T08:12:03.385Z,13.00
2022-09-22T08:13:03.479Z,13.00
2022-09-22T08:14:03.465Z,13.00
2022-09-22T08:15:03.459Z,13.00
2022-09-22T08:16:03.417Z,13.10
2022-09-22T08:17:03.621Z,13.10
2022-09-22T08:18:02.676Z,13.10
2022-09-22T08:19:03.668Z,13.20
2022-09-22T08:20:03.620Z,13.20
2022-09-22T08:21:02.736Z,13.20
2022-09-22T08:22:02.670Z,13.30
2022-09-22T08:23:02.761Z,13.30
2022-09-22T08:24:02.828Z,13.30
2022-09-22T08:25:02.771Z,13.40
2022-09-22T08:26:02.721Z,13.40
2022-09-22T08:27:02.783Z,13.40
2022-09-22T08:28:02.734Z,13.50
2022-09-22T08:29:02.744Z,13.50
2022-09-22T08:30:02.761Z,13.50
2022-09-22T08:31:02.815Z,13.60
2022-09-22T08:32:02.818Z,13.60
2022-09-22T08:33:03.085Z,13.60
2022-09-22T08:34:03.185Z,13.60
2022-09-22T08:35:03.308Z,13.70
2022-09-22T08:36:03.307Z,13.70
2022-09-22T08:37:03.403Z,13.70
2022-09-22T08:38:03.440Z,13.80
2022-09-22T08:39:03.420Z,13.80
2022-09-22T08:40:03.492Z,13.80
2022-09-22T08:41:03.506Z,13.90
2022-09-22T08:42:03.540Z,13.90
2022-09-22T08:43:03.467Z,13.90
2022-09-22T08:44:03.606Z,13.90
2022-09-22T08:45:03.552Z,14.00
2022-09-22T08:46:03.620Z,14.00
2022-09-22T08:47:03.531Z,14.00
2022-09-22T08:48:03.556Z,14.00
2022-09-22T08:49:03.517Z,14.00
2022-09-22T08:50:03.588Z,14.00
2022-09-22T08:51:02.688Z,14.00
2022-09-22T08:52:02.697Z,14.10
2022-09-22T08:53:02.664Z,14.10
2022-09-22T08:54:03.644Z,14.10
2022-09-22T08:55:02.787Z,14.10
2022-09-22T08:56:02.885Z,14.20
2022-09-22T08:57:02.804Z,14.20
2022-09-22T08:58:03.603Z,14.20
2022-09-22T08:59:02.680Z,14.20
2022-09-22T09:00:02.751Z,14.20
2022-09-22T09:01:02.864Z,14.30
2022-09-22T09:02:02.982Z,14.30
2022-09-22T09:03:03.189Z,14.30
2022-09-22T09:04:03.003Z,14.30
2022-09-22T09:05:03.069Z,14.40
2022-09-22T09:06:03.137Z,14.30
2022-09-22T09:07:03.119Z,14.40
2022-09-22T09:08:03.139Z,14.40
2022-09-22T09:09:05.198Z,14.40
2022-09-22T09:10:03.137Z,14.40
2022-09-22T09:11:03.132Z,14.50
2022-09-22T09:12:03.094Z,14.50
2022-09-22T09:13:03.020Z,14.50
2022-09-22T09:14:03.225Z,14.60
2022-09-22T09:15:03.134Z,14.60
2022-09-22T09:16:03.176Z,14.70
2022-09-22T09:17:03.161Z,14.70
2022-09-22T09:18:03.212Z,14.70
2022-09-22T09:19:03.134Z,14.80
2022-09-22T09:20:03.171Z,14.80
2022-09-22T09:21:03.093Z,14.80
2022-09-22T09:22:03.210Z,14.90
2022-09-22T09:23:03.322Z,14.90
2022-09-22T09:25:27.238Z,15.00
2022-09-22T09:26:03.218Z,15.00
2022-09-22T09:27:03.235Z,15.00
2022-09-22T09:28:03.291Z,15.10
2022-09-22T09:29:04.099Z,15.10
2022-09-22T09:30:03.380Z,15.10
2022-09-22T09:31:03.455Z,15.20
2022-09-22T09:32:03.427Z,15.20
2022-09-22T09:33:03.476Z,15.30
2022-09-22T09:34:03.446Z,15.30
2022-09-22T09:36:03.489Z,15.40
2022-09-22T09:37:03.456Z,15.40
2022-09-22T09:38:03.535Z,15.40
2022-09-22T09:39:03.517Z,15.40
2022-09-22T09:40:03.580Z,15.50
2022-09-22T09:41:03.569Z,15.50
2022-09-22T09:42:03.641Z,15.50
2022-09-22T09:43:03.203Z,15.60
2022-09-22T09:44:02.727Z,15.60
2022-09-22T09:45:02.785Z,15.60
2022-09-22T09:46:02.944Z,15.60
2022-09-22T09:47:02.856Z,15.60
2022-09-22T09:48:02.906Z,15.60
2022-09-22T09:49:02.847Z,15.70
2022-09-22T09:50:03.382Z,15.70
2022-09-22T09:51:03.390Z,15.70
2022-09-22T09:52:03.385Z,15.80
2022-09-22T09:53:04.299Z,15.80
2022-09-22T09:54:03.502Z,15.80
2022-09-22T09:55:03.567Z,15.80
2022-09-22T09:56:02.616Z,15.90
2022-09-22T09:57:03.735Z,15.90
2022-09-22T09:58:02.623Z,16.00
2022-09-22T09:59:02.719Z,16.00
2022-09-22T10:00:02.960Z,16.10
2022-09-22T10:01:02.755Z,16.10
2022-09-22T10:02:02.931Z,16.20
2022-09-22T10:03:02.974Z,16.20
2022-09-22T10:04:03.112Z,16.20
2022-09-22T10:05:02.998Z,16.30
2022-09-22T10:06:03.151Z,16.30
2022-09-22T10:07:03.131Z,16.30
2022-09-22T10:08:03.246Z,16.40
2022-09-22T10:09:03.353Z,16.40
2022-09-22T10:10:03.256Z,16.30
2022-09-22T10:11:03.254Z,16.30
2022-09-22T10:12:03.282Z,16.30
2022-09-22T10:13:03.380Z,16.30
2022-09-22T10:14:03.524Z,16.30
2022-09-22T10:15:03.559Z,16.30
2022-09-22T10:16:03.661Z,16.30
2022-09-22T10:17:03.679Z,16.40
2022-09-22T10:18:02.660Z,16.40
2022-09-22T10:19:02.687Z,16.40
2022-09-22T10:20:02.735Z,16.40
2022-09-22T10:21:02.735Z,16.40
2022-09-22T10:22:02.801Z,16.40
2022-09-22T10:23:02.804Z,16.40
2022-09-22T10:24:02.894Z,16.40
2022-09-22T10:25:02.866Z,16.40
2022-09-22T10:26:02.950Z,16.30
2022-09-22T10:27:03.975Z,16.40
2022-09-22T10:28:03.095Z,16.30
2022-09-22T10:29:03.129Z,16.40
2022-09-22T10:30:03.143Z,16.30
2022-09-22T10:31:03.272Z,16.30
2022-09-22T10:32:03.318Z,16.40
2022-09-22T10:33:03.355Z,16.40
2022-09-22T10:34:03.402Z,16.30
2022-09-22T10:35:03.338Z,16.30
2022-09-22T10:36:05.344Z,16.30
2022-09-22T10:37:03.451Z,16.30
2022-09-22T10:38:03.608Z,16.30
2022-09-22T10:39:03.587Z,16.30
2022-09-22T10:40:03.668Z,16.30
2022-09-22T10:41:03.545Z,16.30
2022-09-22T10:42:03.553Z,16.20
2022-09-22T10:43:02.608Z,16.30
2022-09-22T10:44:15.426Z,16.30
2022-09-22T10:45:02.702Z,16.30
2022-09-22T10:46:02.739Z,16.40
2022-09-22T10:47:02.866Z,16.40
2022-09-22T10:48:02.917Z,16.50
2022-09-22T10:49:03.003Z,16.50
2022-09-22T10:50:03.014Z,16.50
2022-09-22T10:51:03.229Z,16.60
2022-09-22T10:52:03.080Z,16.70
2022-09-22T10:53:03.070Z,16.70
2022-09-22T10:54:03.223Z,16.70
2022-09-22T10:55:03.302Z,16.80
2022-09-22T10:56:03.389Z,16.80
2022-09-22T10:57:03.322Z,16.90
2022-09-22T10:58:03.413Z,16.90
2022-09-22T10:59:03.507Z,16.90
2022-09-22T11:00:03.483Z,16.90
2022-09-22T11:01:03.507Z,16.90
2022-09-22T11:02:03.589Z,16.90
2022-09-22T11:03:02.624Z,16.80
2022-09-22T11:04:02.777Z,16.80
2022-09-22T11:05:02.626Z,16.80
2022-09-22T11:06:02.715Z,16.80
2022-09-22T11:07:02.775Z,16.80
2022-09-22T11:08:02.885Z,16.80
2022-09-22T11:09:02.903Z,16.80
2022-09-22T11:10:02.900Z,16.80
2022-09-22T11:11:02.985Z,16.90
2022-09-22T11:12:03.075Z,16.90
2022-09-22T11:13:03.077Z,16.90
2022-09-22T11:14:03.136Z,16.90
2022-09-22T11:15:03.184Z,16.90
2022-09-22T11:16:03.273Z,16.90
2022-09-22T11:17:03.242Z,16.90
2022-09-22T11:18:03.211Z,16.90
2022-09-22T11:19:02.877Z,16.90
2022-09-22T11:20:02.727Z,16.80
2022-09-22T11:21:02.746Z,16.80
2022-09-22T11:22:02.659Z,16.80
2022-09-22T11:23:02.776Z,16.80
2022-09-22T11:24:02.851Z,16.80
2022-09-22T11:25:02.833Z,16.70
2022-09-22T11:26:02.880Z,16.70
2022-09-22T11:27:02.810Z,16.70
2022-09-22T11:28:02.980Z,16.70
2022-09-22T11:29:03.129Z,16.60
2022-09-22T11:30:10.386Z,16.60
2022-09-22T11:31:03.362Z,16.60
2022-09-22T11:32:03.366Z,16.60
2022-09-22T11:33:03.374Z,16.60
2022-09-22T11:34:03.567Z,16.60
2022-09-22T11:35:03.458Z,16.60
2022-09-22T11:36:03.590Z,16.60
2022-09-22T11:37:02.679Z,16.60
2022-09-22T11:38:02.735Z,16.60
2022-09-22T11:39:02.724Z,16.60
2022-09-22T11:40:02.883Z,16.60
2022-09-22T11:41:02.859Z,16.60
2022-09-22T11:42:02.993Z,16.60
2022-09-22T11:43:04.250Z,16.60
2022-09-22T11:44:03.027Z,16.60
2022-09-22T11:45:03.099Z,16.60
2022-09-22T11:46:03.178Z,16.60
2022-09-22T11:47:03.064Z,16.60
2022-09-22T11:48:03.057Z,16.60
2022-09-22T11:49:03.141Z,16.50
2022-09-22T11:50:03.305Z,16.50
2022-09-22T11:51:03.387Z,16.50
2022-09-22T11:52:03.386Z,16.40
2022-09-22T11:53:03.438Z,16.40
2022-09-22T11:54:03.456Z,16.30
2022-09-22T11:55:03.524Z,16.30
2022-09-22T11:56:02.677Z,16.30
2022-09-22T11:57:02.625Z,16.30
2022-09-22T11:58:02.742Z,16.30
2022-09-22T11:59:02.729Z,16.20
2022-09-22T12:00:02.708Z,16.20
2022-09-22T12:01:02.865Z,16.20
2022-09-22T12:02:02.940Z,16.20
2022-09-22T12:03:03.142Z,16.30
2022-09-22T12:04:03.073Z,16.30
2022-09-22T12:05:03.057Z,16.30
2022-09-22T12:06:03.177Z,16.30
2022-09-22T12:07:03.158Z,16.40
2022-09-22T12:08:03.238Z,16.40
2022-09-22T12:09:03.337Z,16.40
2022-09-22T12:10:03.267Z,16.50
2022-09-22T12:11:03.299Z,16.50
2022-09-22T12:12:03.451Z,16.50
2022-09-22T12:13:03.432Z,16.60
2022-09-22T12:14:03.434Z,16.60
2022-09-22T12:15:03.545Z,16.60
2022-09-22T12:17:02.732Z,16.60
2022-09-22T12:18:02.747Z,16.60
2022-09-22T12:19:02.855Z,16.60
2022-09-22T12:20:02.964Z,16.60
2022-09-22T12:21:03.013Z,16.60
2022-09-22T12:22:02.965Z,16.60
2022-09-22T12:23:03.085Z,16.60
2022-09-22T12:24:03.211Z,16.60
2022-09-22T12:25:03.274Z,16.60
2022-09-22T12:26:03.226Z,16.60
2022-09-22T12:27:03.406Z,16.60
2022-09-22T12:28:03.407Z,16.50
2022-09-22T12:29:03.408Z,16.50
2022-09-22T12:30:03.432Z,16.50
2022-09-22T12:31:03.731Z,16.50
2022-09-22T12:32:03.500Z,16.40
2022-09-22T12:33:03.525Z,16.40
2022-09-22T12:34:03.555Z,16.30
2022-09-22T12:35:03.608Z,16.30
2022-09-22T12:36:02.673Z,16.30
2022-09-22T12:37:03.570Z,16.20
2022-09-22T12:38:02.754Z,16.20
2022-09-22T12:39:02.842Z,16.20
2022-09-22T12:40:02.834Z,16.20
2022-09-22T12:41:02.899Z,16.10
2022-09-22T12:42:02.955Z,16.10
2022-09-22T12:43:02.919Z,16.10
2022-09-22T12:44:02.957Z,16.10
2022-09-22T12:45:03.078Z,16.10
2022-09-22T12:46:03.232Z,16.10
2022-09-22T12:47:03.144Z,16.10
2022-09-22T12:48:03.869Z,16.10
2022-09-22T12:49:03.239Z,16.10
2022-09-22T12:50:03.255Z,16.20
2022-09-22T12:51:03.207Z,16.20
2022-09-22T12:52:03.433Z,16.20
2022-09-22T12:53:03.288Z,16.20
2022-09-22T12:54:03.323Z,16.20
2022-09-22T12:55:03.517Z,16.20
2022-09-22T12:56:03.512Z,16.20
2022-09-22T12:57:03.530Z,16.20
2022-09-22T12:58:03.541Z,16.20
2022-09-22T12:59:03.603Z,16.30
2022-09-22T13:00:03.655Z,16.30
2022-09-22T13:01:02.760Z,16.30
2022-09-22T13:02:02.799Z,16.40
2022-09-22T13:03:02.665Z,16.40
2022-09-22T13:04:02.777Z,16.50
2022-09-22T13:05:02.880Z,16.50
2022-09-22T13:06:02.942Z,16.50
2022-09-22T13:07:03.072Z,16.60
2022-09-22T13:08:03.073Z,16.60